Startpagina
METAR-TAF:

METAR-TAF

Vliegvelden :

Luchthaven Pointe-Noire

Pointe-Noire, Congo

breedte: 04-49S, lengte: 011-54E, hoogte: 17 m

Actueel weer

Dit bericht is 1 uur en het 21 minuten geleden gemaakt, om 07:00 UTC
Wind 2 kt uit het zuidzuidoosten
Temperatuur 21°C
Vochtigheid 100%
Druk 1015 hPa
Zicht: 4000 m
Weinig wolken op 1000 ft
Verspreide wolken op 3000 ft
nevel

METAR: FCPP 170700Z 15002KT 4000 BR FEW010 SCT030 21/21 Q1015 BECMG 6000 NSW

Tijdstip: 09:21 (08:21 UTC)

Verwachting

Dit bericht is 3 uur en het 21 minuten geleden gemaakt, om 05:00 UTC
Verwachting geldig van 17 om 06 UTC tot 18 om 06 UTC
Wind 4 kt uit het zuidzuidwesten
Zicht: 4000 m
Verspreide wolken op 1800 ft
nevel
Wijzigt naar
van 17 om 08 UTC tot 17 om 09 UTC
Zicht: 6000 m
Wijzigt naar
van 18 om 02 UTC tot 18 om 04 UTC
Zicht: 3000 m
nevel

TAF: FCPP 170500Z 1706/1806 20004KT 4000 BR SCT018 BECMG 1708/1709 6000 NSW BECMG 1802/1804 3000 BR

Waarnemingen en weersverwachtingen van meer dan 4000 vliegvelden (METAR en TAF).

De beschikbare stations zijn de gele en rode punten op de kaart.

Ga met uw muis naar het station om de naam te zien.

Klik dan om waarnemingen en weersverwachtingen te zien.

kaart wijzigen: klik op de groene knoppen met een zwart kruis om in te zoomen, op de groene knop met een streepje om uit te zoomen of op de groene pijlen voor aangrenzende kaarten.


METAR-TAF: